createdAt,value
2023-03-03T00:00:48.746Z,-1.10
2023-03-03T00:03:19.548Z,-1.20
2023-03-03T00:05:46.533Z,-1.10
2023-03-03T00:08:13.442Z,-1.00
2023-03-03T00:10:40.353Z,-1.00
2023-03-03T00:13:17.624Z,-1.00
2023-03-03T00:15:44.958Z,-0.90
2023-03-03T00:18:22.631Z,-0.90
2023-03-03T00:20:54.643Z,-0.80
2023-03-03T00:23:36.186Z,-0.80
2023-03-03T00:26:15.105Z,-0.80
2023-03-03T00:28:51.280Z,-0.80
2023-03-03T00:31:22.501Z,-0.80
2023-03-03T00:33:55.019Z,-0.80
2023-03-03T00:36:32.707Z,-0.80
2023-03-03T00:39:17.868Z,-0.80
2023-03-03T00:41:44.779Z,-0.80
2023-03-03T00:44:44.069Z,-0.80
2023-03-03T00:47:31.031Z,-0.80
2023-03-03T00:50:07.273Z,-0.80
2023-03-03T00:52:37.475Z,-0.70
2023-03-03T00:55:05.287Z,-0.70
2023-03-03T00:57:32.297Z,-0.70
2023-03-03T00:59:59.761Z,-0.80
2023-03-03T01:02:27.194Z,-0.80
2023-03-03T01:04:57.333Z,-0.90
2023-03-03T01:07:24.226Z,-1.00
2023-03-03T01:09:51.154Z,-1.00
2023-03-03T01:12:18.733Z,-1.00
2023-03-03T01:14:46.103Z,-0.90
2023-03-03T01:17:12.976Z,-1.00
2023-03-03T01:19:39.922Z,-1.00
2023-03-03T01:22:06.889Z,-1.10
2023-03-03T01:24:33.723Z,-1.00
2023-03-03T01:27:00.534Z,-1.10
2023-03-03T01:29:27.372Z,-1.10
2023-03-03T01:31:54.343Z,-1.20
2023-03-03T01:34:22.036Z,-1.10
2023-03-03T01:36:48.985Z,-1.10
2023-03-03T01:39:16.063Z,-1.00
2023-03-03T01:41:42.911Z,-1.00
2023-03-03T01:44:15.173Z,-1.10
2023-03-03T01:46:50.773Z,-1.10
2023-03-03T01:49:27.268Z,-1.30
2023-03-03T01:52:01.268Z,-1.30
2023-03-03T01:54:37.104Z,-1.40
2023-03-03T01:57:11.357Z,-1.40
2023-03-03T01:59:42.939Z,-1.40
2023-03-03T02:02:09.950Z,-1.40
2023-03-03T02:04:36.941Z,-1.40
2023-03-03T02:07:10.743Z,-1.50
2023-03-03T02:10:02.013Z,-1.40
2023-03-03T02:12:41.497Z,-1.50
2023-03-03T02:15:24.484Z,-1.50
2023-03-03T02:17:54.840Z,-1.60
2023-03-03T02:20:32.530Z,-1.50
2023-03-03T02:23:06.356Z,-1.50
2023-03-03T02:25:58.728Z,-1.50
2023-03-03T02:28:31.100Z,-1.50
2023-03-03T02:31:02.702Z,-1.60
2023-03-03T02:33:30.086Z,-1.60
2023-03-03T02:35:57.023Z,-1.60
2023-03-03T02:38:40.142Z,-1.70
2023-03-03T02:41:22.267Z,-1.70
2023-03-03T02:44:07.245Z,-1.60
2023-03-03T02:46:43.009Z,-1.60
2023-03-03T02:49:12.414Z,-1.60
2023-03-03T02:51:39.976Z,-1.60
2023-03-03T02:54:08.699Z,-1.50
2023-03-03T02:56:36.798Z,-1.50
2023-03-03T02:59:05.052Z,-1.50
2023-03-03T03:01:38.445Z,-1.60
2023-03-03T03:04:13.443Z,-1.60
2023-03-03T03:06:44.172Z,-1.50
2023-03-03T03:09:14.469Z,-1.50
2023-03-03T03:11:41.825Z,-1.50
2023-03-03T03:14:11.715Z,-1.50
2023-03-03T03:16:40.161Z,-1.60
2023-03-03T03:19:08.084Z,-1.50
2023-03-03T03:21:36.452Z,-1.40
2023-03-03T03:24:05.914Z,-1.40
2023-03-03T03:26:34.121Z,-1.30
2023-03-03T03:29:01.196Z,-1.30
2023-03-03T03:31:28.416Z,-1.20
2023-03-03T03:33:55.353Z,-1.20
2023-03-03T03:36:23.696Z,-1.10
2023-03-03T03:38:52.402Z,-1.00
2023-03-03T03:41:19.515Z,-0.90
2023-03-03T03:43:47.284Z,-0.80
2023-03-03T03:46:15.154Z,-0.80
2023-03-03T03:48:42.133Z,-0.80
2023-03-03T03:51:12.642Z,-0.80
2023-03-03T03:53:40.099Z,-0.80
2023-03-03T03:56:07.686Z,-0.90
2023-03-03T03:58:34.824Z,-1.00
2023-03-03T04:01:07.210Z,-1.00
2023-03-03T04:03:38.034Z,-1.10
2023-03-03T04:06:09.463Z,-1.10
2023-03-03T04:08:36.367Z,-1.20
2023-03-03T04:11:04.083Z,-1.20
2023-03-03T04:13:35.183Z,-1.20
2023-03-03T04:16:03.982Z,-1.20
2023-03-03T04:18:31.115Z,-1.30
2023-03-03T04:20:58.659Z,-1.30
2023-03-03T04:23:26.922Z,-1.30
2023-03-03T04:25:53.851Z,-1.30
2023-03-03T04:28:22.450Z,-1.40
2023-03-03T04:30:50.516Z,-1.40
2023-03-03T04:33:18.461Z,-1.30
2023-03-03T04:35:46.076Z,-1.30
2023-03-03T04:38:13.600Z,-1.30
2023-03-03T04:40:42.274Z,-1.30
2023-03-03T04:43:10.632Z,-1.30
2023-03-03T04:45:37.914Z,-1.30
2023-03-03T04:48:05.850Z,-1.40
2023-03-03T04:50:34.980Z,-1.40
2023-03-03T04:53:02.248Z,-1.30
2023-03-03T04:55:29.125Z,-1.30
2023-03-03T04:57:55.963Z,-1.30
2023-03-03T05:00:23.307Z,-1.40
2023-03-03T05:02:50.156Z,-1.40
2023-03-03T05:05:17.230Z,-1.40
2023-03-03T05:07:44.196Z,-1.50
2023-03-03T05:10:12.039Z,-1.40
2023-03-03T05:12:39.289Z,-1.50
2023-03-03T05:15:07.182Z,-1.50
2023-03-03T05:17:33.980Z,-1.50
2023-03-03T05:20:00.758Z,-1.60
2023-03-03T05:22:28.051Z,-1.60
2023-03-03T05:24:54.861Z,-1.60
2023-03-03T05:27:21.817Z,-1.60
2023-03-03T05:29:48.812Z,-1.50
2023-03-03T05:32:15.896Z,-1.50
2023-03-03T05:34:43.102Z,-1.40
2023-03-03T05:37:09.994Z,-1.40
2023-03-03T05:39:36.910Z,-1.40
2023-03-03T05:42:03.823Z,-1.40
2023-03-03T05:44:30.674Z,-1.50
2023-03-03T05:46:57.787Z,-1.50
2023-03-03T05:49:25.357Z,-1.40
2023-03-03T05:51:52.340Z,-1.40
2023-03-03T05:54:19.304Z,-1.50
2023-03-03T05:56:46.259Z,-1.50
2023-03-03T05:59:13.464Z,-1.50
2023-03-03T06:01:40.297Z,-1.50
2023-03-03T06:04:10.339Z,-1.50
2023-03-03T06:06:37.562Z,-1.50
2023-03-03T06:09:04.833Z,-1.50
2023-03-03T06:11:31.836Z,-1.50
2023-03-03T06:13:59.265Z,-1.60
2023-03-03T06:16:26.094Z,-1.70
2023-03-03T06:18:52.993Z,-1.60
2023-03-03T06:21:20.296Z,-1.60
2023-03-03T06:23:47.111Z,-1.50
2023-03-03T06:26:13.961Z,-1.60
2023-03-03T06:28:40.960Z,-1.50
2023-03-03T06:31:07.772Z,-1.60
2023-03-03T06:33:34.644Z,-1.60
2023-03-03T06:36:01.591Z,-1.50
2023-03-03T06:38:29.072Z,-1.40
2023-03-03T06:40:55.999Z,-1.40
2023-03-03T06:43:23.004Z,-1.40
2023-03-03T06:45:49.947Z,-1.20
2023-03-03T06:48:16.863Z,-1.10
2023-03-03T06:50:43.757Z,-1.00
2023-03-03T06:53:16.447Z,-0.90
2023-03-03T06:55:45.216Z,-0.90
2023-03-03T06:58:22.833Z,-0.80
2023-03-03T07:00:57.121Z,-0.70
2023-03-03T07:03:33.349Z,-0.70
2023-03-03T07:06:01.185Z,-0.70
2023-03-03T07:08:32.114Z,-0.70
2023-03-03T07:11:08.287Z,-0.60
2023-03-03T07:13:40.376Z,-0.60
2023-03-03T07:16:12.591Z,-0.70
2023-03-03T07:18:40.941Z,-0.60
2023-03-03T07:21:32.156Z,-0.60
2023-03-03T07:24:01.372Z,-0.50
2023-03-03T07:26:33.075Z,-0.50
2023-03-03T07:29:18.271Z,-0.60
2023-03-03T07:31:48.595Z,-0.50
2023-03-03T07:34:38.076Z,-0.50
2023-03-03T07:37:18.416Z,-0.50
2023-03-03T07:39:46.910Z,-0.50
2023-03-03T07:42:53.431Z,-0.40
2023-03-03T07:45:36.308Z,-0.50
2023-03-03T07:48:22.061Z,-0.50
2023-03-03T07:50:50.038Z,-0.40
2023-03-03T07:53:29.604Z,-0.30
2023-03-03T07:55:56.522Z,-0.20
2023-03-03T07:58:29.823Z,-0.20
2023-03-03T08:01:28.271Z,-0.10
2023-03-03T08:03:56.326Z,-0.10
2023-03-03T08:06:38.046Z,-0.10
2023-03-03T08:09:27.911Z,-0.10
2023-03-03T08:12:19.620Z,0.10
2023-03-03T08:14:47.539Z,0.10
2023-03-03T08:17:20.477Z,0.20
2023-03-03T08:19:48.193Z,0.30
2023-03-03T08:22:25.242Z,0.30
2023-03-03T08:24:52.324Z,0.40
2023-03-03T08:27:19.417Z,0.50
2023-03-03T08:29:48.431Z,0.70
2023-03-03T08:32:15.648Z,0.80
2023-03-03T08:34:42.693Z,1.00
2023-03-03T08:37:09.470Z,1.20
2023-03-03T08:39:36.323Z,1.40
2023-03-03T08:42:03.310Z,1.50
2023-03-03T08:44:30.156Z,1.60
2023-03-03T08:46:56.976Z,1.70
2023-03-03T08:49:23.924Z,1.70
2023-03-03T08:51:52.648Z,1.80
2023-03-03T08:54:19.452Z,1.80
2023-03-03T08:56:46.481Z,1.70
2023-03-03T08:59:13.498Z,1.80
2023-03-03T09:01:40.487Z,1.80
2023-03-03T09:04:07.449Z,1.90
2023-03-03T09:06:34.307Z,1.90
2023-03-03T09:09:01.469Z,2.00
2023-03-03T09:11:29.657Z,2.00
2023-03-03T09:14:10.009Z,2.00
2023-03-03T09:16:51.879Z,2.10
2023-03-03T09:19:23.557Z,2.20
2023-03-03T09:21:55.344Z,2.20
2023-03-03T09:24:25.917Z,2.10
2023-03-03T09:26:55.742Z,2.10
2023-03-03T09:29:29.410Z,2.10
2023-03-03T09:32:02.402Z,2.00
2023-03-03T09:34:41.228Z,1.90
2023-03-03T09:37:40.383Z,2.00
2023-03-03T09:40:47.788Z,2.00
2023-03-03T09:43:42.492Z,2.10
2023-03-03T09:46:40.271Z,2.20
2023-03-03T09:49:16.692Z,2.60
2023-03-03T09:52:08.489Z,2.80
2023-03-03T09:54:56.968Z,3.10
2023-03-03T09:57:36.142Z,3.40
2023-03-03T10:00:34.205Z,3.40
2023-03-03T10:03:21.895Z,3.50
2023-03-03T10:05:48.746Z,3.70
2023-03-03T10:08:46.526Z,3.90
2023-03-03T10:11:18.048Z,4.10
2023-03-03T10:14:07.691Z,4.20
2023-03-03T10:16:50.625Z,4.20
2023-03-03T10:19:50.018Z,4.20
2023-03-03T10:22:29.509Z,4.20
2023-03-03T10:25:22.270Z,4.20
2023-03-03T10:28:30.300Z,4.20
2023-03-03T10:31:14.957Z,4.30
2023-03-03T10:33:49.581Z,4.40
2023-03-03T10:36:22.259Z,4.60
2023-03-03T10:39:19.111Z,4.70
2023-03-03T10:42:01.163Z,5.00
2023-03-03T10:44:46.201Z,5.20
2023-03-03T10:47:35.673Z,5.70
2023-03-03T10:50:30.279Z,6.10
2023-03-03T10:53:21.689Z,6.50
2023-03-03T10:56:11.604Z,6.70
2023-03-03T10:58:46.278Z,6.80
2023-03-03T11:01:31.639Z,6.90
2023-03-03T11:04:57.325Z,6.90
2023-03-03T11:07:39.186Z,6.90
2023-03-03T11:10:17.380Z,6.80
2023-03-03T11:13:10.823Z,6.70
2023-03-03T11:15:56.084Z,6.60
2023-03-03T11:18:44.758Z,6.60
2023-03-03T11:21:32.415Z,6.50
2023-03-03T11:24:28.252Z,6.40
2023-03-03T11:27:23.201Z,6.20
2023-03-03T11:30:18.363Z,6.10
2023-03-03T11:32:59.036Z,6.00
2023-03-03T11:35:35.912Z,6.00
2023-03-03T11:38:17.510Z,6.00
2023-03-03T11:41:09.693Z,6.00
2023-03-03T11:43:56.501Z,6.00
2023-03-03T11:46:48.591Z,6.00
2023-03-03T11:49:43.432Z,6.00
2023-03-03T11:52:53.303Z,6.10
2023-03-03T11:55:48.934Z,6.10
2023-03-03T11:58:31.603Z,6.30
2023-03-03T12:01:19.986Z,6.30
2023-03-03T12:04:15.597Z,6.30
2023-03-03T12:07:12.891Z,6.40
2023-03-03T12:10:02.771Z,6.40
2023-03-03T12:12:52.766Z,6.50
2023-03-03T12:15:46.382Z,6.60
2023-03-03T12:18:29.024Z,6.80
2023-03-03T12:21:16.019Z,6.80
2023-03-03T12:23:51.833Z,6.90
2023-03-03T12:26:53.206Z,7.00
2023-03-03T12:29:35.636Z,7.10
2023-03-03T12:32:16.030Z,7.10
2023-03-03T12:34:56.564Z,7.20
2023-03-03T12:37:43.822Z,7.20
2023-03-03T12:40:21.114Z,7.20
2023-03-03T12:43:11.130Z,7.20
2023-03-03T12:45:48.252Z,7.20
2023-03-03T12:48:45.198Z,7.20
2023-03-03T12:51:30.007Z,7.30
2023-03-03T12:54:10.338Z,7.20
2023-03-03T12:56:46.302Z,7.20
2023-03-03T12:59:34.774Z,7.20
2023-03-03T13:02:30.867Z,7.10
2023-03-03T13:05:06.417Z,7.10
2023-03-03T13:07:46.262Z,7.20
2023-03-03T13:10:17.150Z,7.20
2023-03-03T13:13:07.006Z,7.20
2023-03-03T13:15:38.174Z,7.20
2023-03-03T13:18:17.323Z,7.20
2023-03-03T13:21:05.933Z,7.20
2023-03-03T13:23:46.525Z,7.20
2023-03-03T13:26:26.521Z,7.20
2023-03-03T13:29:17.728Z,7.20
2023-03-03T13:31:52.002Z,7.30
2023-03-03T13:34:36.376Z,7.30
2023-03-03T13:37:17.751Z,7.30
2023-03-03T13:40:00.310Z,7.40
2023-03-03T13:42:38.387Z,7.40
2023-03-03T13:45:20.960Z,7.50
2023-03-03T13:48:01.854Z,7.50
2023-03-03T13:50:45.227Z,7.50
2023-03-03T13:53:47.710Z,7.60
2023-03-03T13:56:26.501Z,7.60
2023-03-03T13:59:10.287Z,7.60
2023-03-03T14:02:21.051Z,7.70
2023-03-03T14:05:01.730Z,7.80
2023-03-03T14:07:57.464Z,7.80
2023-03-03T14:10:32.025Z,7.80
2023-03-03T14:13:01.940Z,7.80
2023-03-03T14:15:38.734Z,7.80
2023-03-03T14:18:34.499Z,7.80
2023-03-03T14:21:15.119Z,7.80
2023-03-03T14:23:55.709Z,7.80
2023-03-03T14:26:22.960Z,7.80
2023-03-03T14:28:52.425Z,7.80
2023-03-03T14:31:23.642Z,7.80
2023-03-03T14:34:12.264Z,7.80
2023-03-03T14:36:41.746Z,7.70
2023-03-03T14:39:33.502Z,7.70
2023-03-03T14:42:14.823Z,7.60
2023-03-03T14:44:55.718Z,7.50
2023-03-03T14:47:25.007Z,7.50
2023-03-03T14:50:00.773Z,7.60
2023-03-03T14:52:30.159Z,7.50
2023-03-03T14:55:00.380Z,7.50
2023-03-03T14:57:46.263Z,7.50
2023-03-03T15:00:13.584Z,7.40
2023-03-03T15:03:04.728Z,7.50
2023-03-03T15:05:32.993Z,7.50
2023-03-03T15:08:05.835Z,7.40
2023-03-03T15:10:38.201Z,7.40
2023-03-03T15:13:20.752Z,7.50
2023-03-03T15:15:53.222Z,7.50
2023-03-03T15:18:20.788Z,7.40
2023-03-03T15:21:10.406Z,7.30
2023-03-03T15:23:40.306Z,7.30
2023-03-03T15:26:10.150Z,7.30
2023-03-03T15:28:59.742Z,7.30
2023-03-03T15:31:41.379Z,7.30
2023-03-03T15:34:44.379Z,7.40
2023-03-03T15:37:14.174Z,7.40
2023-03-03T15:40:32.432Z,7.30
2023-03-03T15:43:05.697Z,7.30
2023-03-03T15:45:49.997Z,7.30
2023-03-03T15:48:39.880Z,7.30
2023-03-03T15:51:25.682Z,7.20
2023-03-03T15:54:10.776Z,7.30
2023-03-03T15:56:58.439Z,7.20
2023-03-03T15:59:28.430Z,7.20
2023-03-03T16:02:11.220Z,7.20
2023-03-03T16:04:46.916Z,7.20
2023-03-03T16:07:52.294Z,7.20
2023-03-03T16:10:25.131Z,7.20
2023-03-03T16:12:59.677Z,7.10
2023-03-03T16:15:58.683Z,7.20
2023-03-03T16:18:45.072Z,7.20
2023-03-03T16:21:21.561Z,7.20
2023-03-03T16:24:13.265Z,7.20
2023-03-03T16:27:06.129Z,7.10
2023-03-03T16:29:43.370Z,7.10
2023-03-03T16:32:24.470Z,7.00
2023-03-03T16:35:17.909Z,7.00
2023-03-03T16:38:06.518Z,7.00
2023-03-03T16:40:37.110Z,7.00
2023-03-03T16:43:29.980Z,6.90
2023-03-03T16:46:23.661Z,6.90
2023-03-03T16:49:09.935Z,6.90
2023-03-03T16:51:44.742Z,6.80
2023-03-03T16:54:20.729Z,6.80
2023-03-03T16:57:00.052Z,6.70
2023-03-03T16:59:37.973Z,6.70
2023-03-03T17:02:10.564Z,6.80
2023-03-03T17:04:49.032Z,6.70
2023-03-03T17:07:23.232Z,6.70
2023-03-03T17:10:05.246Z,6.70
2023-03-03T17:12:46.899Z,6.70
2023-03-03T17:15:35.499Z,6.60
2023-03-03T17:18:24.609Z,6.60
2023-03-03T17:20:58.124Z,6.60
2023-03-03T17:23:40.924Z,6.60
2023-03-03T17:26:28.091Z,6.60
2023-03-03T17:29:10.410Z,6.60
2023-03-03T17:31:59.146Z,6.50
2023-03-03T17:34:35.093Z,6.50
2023-03-03T17:37:11.125Z,6.40
2023-03-03T17:40:01.205Z,6.40
2023-03-03T17:42:47.517Z,6.40
2023-03-03T17:45:16.640Z,6.30
2023-03-03T17:47:51.756Z,6.30
2023-03-03T17:50:30.763Z,6.30
2023-03-03T17:53:15.583Z,6.20
2023-03-03T17:55:48.397Z,6.20
2023-03-03T17:58:34.181Z,6.10
2023-03-03T18:01:21.050Z,6.10
2023-03-03T18:03:59.136Z,6.10
2023-03-03T18:06:48.287Z,6.10
2023-03-03T18:09:46.066Z,6.00
2023-03-03T18:12:44.497Z,6.00
2023-03-03T18:15:25.340Z,6.00
2023-03-03T18:17:52.270Z,6.00
2023-03-03T18:20:54.310Z,6.00
2023-03-03T18:23:42.653Z,5.90
2023-03-03T18:26:36.038Z,5.90
2023-03-03T18:29:26.216Z,5.90
2023-03-03T18:31:53.027Z,6.00
2023-03-03T18:34:39.246Z,5.90
2023-03-03T18:37:31.424Z,5.90
2023-03-03T18:40:04.298Z,5.90
2023-03-03T18:42:46.473Z,5.90
2023-03-03T18:45:23.036Z,5.90
2023-03-03T18:48:14.481Z,5.90
2023-03-03T18:50:47.354Z,5.80
2023-03-03T18:53:22.735Z,5.80
2023-03-03T18:55:56.535Z,5.80
2023-03-03T18:58:27.367Z,5.80
2023-03-03T19:01:11.706Z,5.70
2023-03-03T19:03:47.100Z,5.70
2023-03-03T19:06:57.068Z,5.70
2023-03-03T19:09:56.725Z,5.60
2023-03-03T19:12:51.884Z,5.50
2023-03-03T19:15:35.466Z,5.40
2023-03-03T19:18:02.472Z,5.40
2023-03-03T19:20:45.736Z,5.30
2023-03-03T19:23:15.971Z,5.30
2023-03-03T19:25:43.171Z,5.10
2023-03-03T19:28:38.730Z,5.10
2023-03-03T19:31:46.358Z,5.10
2023-03-03T19:34:22.441Z,5.10
2023-03-03T19:37:16.168Z,5.00
2023-03-03T19:40:01.129Z,5.00
2023-03-03T19:42:40.036Z,5.00
2023-03-03T19:45:15.770Z,5.00
2023-03-03T19:47:52.195Z,5.00
2023-03-03T19:50:46.032Z,5.00
2023-03-03T19:53:28.081Z,5.00
2023-03-03T19:56:07.107Z,4.90
2023-03-03T19:58:38.560Z,4.90
2023-03-03T20:01:33.064Z,4.80
2023-03-03T20:04:30.859Z,4.80
2023-03-03T20:07:34.978Z,4.70
2023-03-03T20:10:23.732Z,4.70
2023-03-03T20:13:12.290Z,4.70
2023-03-03T20:15:53.913Z,4.70
2023-03-03T20:18:53.348Z,4.70
2023-03-03T20:21:59.281Z,4.70
2023-03-03T20:24:41.615Z,4.60
2023-03-03T20:27:29.768Z,4.60
2023-03-03T20:30:06.103Z,4.60
2023-03-03T20:32:50.122Z,4.50
2023-03-03T20:35:31.792Z,4.50
2023-03-03T20:38:26.976Z,4.50
2023-03-03T20:41:02.303Z,4.40
2023-03-03T20:43:41.540Z,4.30
2023-03-03T20:46:27.368Z,4.20
2023-03-03T20:49:33.178Z,4.20
2023-03-03T20:52:22.959Z,4.10
2023-03-03T20:55:02.320Z,4.10
2023-03-03T20:57:41.565Z,4.10
2023-03-03T21:00:25.003Z,4.10
2023-03-03T21:03:00.158Z,4.10
2023-03-03T21:05:27.203Z,4.00
2023-03-03T21:07:54.080Z,4.00
2023-03-03T21:10:27.095Z,4.00
2023-03-03T21:12:59.317Z,3.90
2023-03-03T21:15:35.618Z,3.90
2023-03-03T21:18:21.183Z,3.90
2023-03-03T21:20:48.082Z,3.80
2023-03-03T21:23:16.658Z,3.70
2023-03-03T21:25:56.655Z,3.70
2023-03-03T21:28:28.983Z,3.60
2023-03-03T21:31:17.494Z,3.60
2023-03-03T21:33:47.997Z,3.60
2023-03-03T21:36:45.089Z,3.50
2023-03-03T21:39:31.670Z,3.50
2023-03-03T21:42:09.090Z,3.50
2023-03-03T21:45:09.668Z,3.50
2023-03-03T21:47:36.424Z,3.40
2023-03-03T21:50:04.036Z,3.40
2023-03-03T21:52:30.992Z,3.50
2023-03-03T21:54:57.773Z,3.50
2023-03-03T21:57:25.211Z,3.50
2023-03-03T21:59:53.424Z,3.40
2023-03-03T22:02:20.849Z,3.40
2023-03-03T22:04:47.791Z,3.40
2023-03-03T22:07:14.827Z,3.30
2023-03-03T22:09:41.645Z,3.30
2023-03-03T22:12:08.618Z,3.20
2023-03-03T22:14:35.420Z,3.10
2023-03-03T22:17:02.413Z,3.10
2023-03-03T22:19:29.360Z,3.00
2023-03-03T22:21:56.135Z,2.90
2023-03-03T22:24:23.007Z,2.90
2023-03-03T22:26:49.796Z,2.90
2023-03-03T22:29:17.168Z,2.80
2023-03-03T22:31:43.949Z,2.70
2023-03-03T22:34:11.120Z,2.60
2023-03-03T22:36:38.024Z,2.60
2023-03-03T22:39:04.795Z,2.50
2023-03-03T22:41:31.715Z,2.50
2023-03-03T22:43:58.650Z,2.40
2023-03-03T22:46:26.272Z,2.40
2023-03-03T22:48:53.279Z,2.40
2023-03-03T22:51:22.207Z,2.30
2023-03-03T22:53:49.115Z,2.30
2023-03-03T22:56:15.976Z,2.30
2023-03-03T22:58:42.775Z,2.30
2023-03-03T23:01:09.543Z,2.30
2023-03-03T23:03:37.296Z,2.40
2023-03-03T23:06:04.500Z,2.40
2023-03-03T23:08:31.498Z,2.30
2023-03-03T23:10:58.396Z,2.30
2023-03-03T23:13:27.099Z,2.30
2023-03-03T23:15:53.965Z,2.20
2023-03-03T23:18:20.929Z,2.10
2023-03-03T23:20:47.796Z,2.10
2023-03-03T23:23:14.656Z,2.00
2023-03-03T23:25:41.545Z,1.90
2023-03-03T23:28:08.433Z,1.80
2023-03-03T23:30:35.386Z,1.60
2023-03-03T23:33:02.288Z,1.60
2023-03-03T23:35:29.109Z,1.50
2023-03-03T23:37:56.056Z,1.50
2023-03-03T23:40:23.761Z,1.50
2023-03-03T23:42:50.608Z,1.40
2023-03-03T23:45:17.720Z,1.40
2023-03-03T23:47:44.586Z,1.40
2023-03-03T23:50:12.755Z,1.30
2023-03-03T23:52:39.690Z,1.30
2023-03-03T23:55:07.437Z,1.30
2023-03-03T23:57:34.225Z,1.30
